Time;durP1;ratioP1;P1;durP2;ratioP2;P2;SDS_P1;SDS_P2;PMS_P1;PMS_P2;Temp;Humidity;BMP_temperature;BMP_pressure;BME280_temperature;BME280_humidity;BME280_pressure;Samples;Min_cycle;Max_cycle;Signal;HPM_P1;HPM_P2
2023/10/23 00:00:51;;;;;;;0.20;0.20;;;;;;;16.12;55.56;101323.34;5071274;28;20070;-69
2023/10/23 00:03:16;;;;;;;0.20;0.20;;;;;;;16.10;55.54;101325.50;5071498;28;20063;-70
2023/10/23 00:05:41;;;;;;;0.20;0.20;;;;;;;15.78;56.83;101326.13;5071018;28;20060;-70
2023/10/23 00:08:07;;;;;;;0.22;0.22;;;;;;;15.70;57.34;101331.94;5071063;28;20415;-70
2023/10/23 00:10:32;;;;;;;0.30;0.30;;;;;;;15.76;56.82;101335.59;5070869;28;20123;-71
2023/10/23 00:12:57;;;;;;;0.15;0.15;;;;;;;15.92;56.53;101329.31;5070880;28;20032;-70
2023/10/23 00:15:23;;;;;;;0.25;0.25;;;;;;;16.04;55.75;101338.16;5071108;28;20040;-68
2023/10/23 00:17:48;;;;;;;0.20;0.20;;;;;;;16.06;55.72;101330.59;5070430;28;20137;-71
2023/10/23 00:20:15;;;;;;;0.30;0.30;;;;;;;16.05;55.22;101334.41;5070621;28;20131;-70
2023/10/23 00:22:40;;;;;;;0.30;0.30;;;;;;;16.03;55.61;101336.53;5070654;28;20085;-70
2023/10/23 00:25:06;;;;;;;0.30;0.30;;;;;;;16.04;55.81;101332.75;5070833;28;20029;-70
2023/10/23 00:27:31;;;;;;;0.30;0.30;;;;;;;15.97;55.77;101328.56;5070860;28;20465;-69
2023/10/23 00:29:56;;;;;;;0.28;0.28;;;;;;;16.01;55.33;101333.25;5071083;28;20075;-70
2023/10/23 00:32:22;;;;;;;0.20;0.20;;;;;;;16.03;55.54;101325.69;5070095;28;20572;-71
2023/10/23 00:34:47;;;;;;;0.20;0.20;;;;;;;16.05;55.20;101330.84;5069793;28;20127;-70
2023/10/23 00:37:13;;;;;;;0.40;0.40;;;;;;;16.06;54.97;101332.50;5069946;28;20090;-71
2023/10/23 00:39:39;;;;;;;0.10;0.10;;;;;;;15.99;55.49;101337.28;5069837;28;20438;-69
2023/10/23 00:42:04;;;;;;;0.30;0.30;;;;;;;15.87;55.94;101340.09;5070441;28;20853;-70
2023/10/23 00:44:30;;;;;;;0.43;0.43;;;;;;;15.88;55.80;101341.72;5069673;28;20075;-71
2023/10/23 00:46:56;;;;;;;0.25;0.25;;;;;;;15.80;55.78;101332.09;5069308;28;20127;-70
2023/10/23 00:49:22;;;;;;;0.30;0.30;;;;;;;15.84;55.22;101338.69;5069807;28;20040;-70
2023/10/23 00:51:47;;;;;;;0.22;0.22;;;;;;;15.78;55.12;101334.25;5069671;28;20493;-70
2023/10/23 00:54:14;;;;;;;0.30;0.30;;;;;;;15.74;55.31;101343.13;5070068;28;20036;-69
2023/10/23 00:56:40;;;;;;;0.20;0.20;;;;;;;15.76;55.23;101341.81;5069441;28;20762;-70
2023/10/23 00:59:07;;;;;;;0.40;0.40;;;;;;;15.65;55.92;101345.44;5054354;28;20056;-70
2023/10/23 01:01:33;;;;;;;0.15;0.15;;;;;;;15.55;55.97;101339.84;5049157;28;20032;-70
2023/10/23 01:04:00;;;;;;;0.40;0.40;;;;;;;15.48;56.35;101341.06;5049396;28;20033;-69
2023/10/23 01:06:26;;;;;;;0.30;0.30;;;;;;;15.62;56.24;101336.97;5050934;28;20539;-71
2023/10/23 01:08:52;;;;;;;0.30;0.30;;;;;;;15.66;55.64;101333.50;5051656;28;20089;-71
2023/10/23 01:11:17;;;;;;;0.40;0.40;;;;;;;15.66;55.13;101340.84;5070305;28;20047;-69
2023/10/23 01:13:42;;;;;;;0.20;0.20;;;;;;;15.63;55.82;101335.88;5070341;28;20044;-69
2023/10/23 01:16:08;;;;;;;0.30;0.30;;;;;;;15.49;55.76;101334.56;5070093;28;20046;-69
2023/10/23 01:18:33;;;;;;;0.30;0.30;;;;;;;15.57;55.83;101334.16;5070179;28;20052;-68
2023/10/23 01:20:58;;;;;;;0.30;0.30;;;;;;;15.53;55.56;101336.56;5070820;28;20024;-70
2023/10/23 01:23:26;;;;;;;0.40;0.40;;;;;;;15.53;55.87;101331.13;5070535;28;20131;-70
2023/10/23 01:25:53;;;;;;;0.20;0.20;;;;;;;15.50;55.78;101333.50;5070295;28;20044;-70
2023/10/23 01:28:18;;;;;;;0.20;0.20;;;;;;;15.50;55.62;101339.75;5070052;28;20093;-70
2023/10/23 01:30:44;;;;;;;0.30;0.30;;;;;;;15.48;56.29;101333.78;5070021;28;20033;-70
2023/10/23 01:33:10;;;;;;;0.15;0.15;;;;;;;15.57;55.58;101345.00;5070011;28;20047;-70
2023/10/23 01:35:35;;;;;;;0.40;0.40;;;;;;;15.54;55.64;101345.50;5070074;28;20049;-70
2023/10/23 01:38:01;;;;;;;0.32;0.32;;;;;;;15.61;55.59;101343.44;5070074;28;20037;-70
2023/10/23 01:40:26;;;;;;;0.30;0.30;;;;;;;15.62;55.80;101350.53;5070110;28;20112;-70
2023/10/23 01:42:51;;;;;;;0.20;0.20;;;;;;;15.60;55.76;101349.94;5051411;28;20139;-70
2023/10/23 01:45:18;;;;;;;0.22;0.22;;;;;;;15.64;56.13;101354.63;5070571;28;20075;-70
2023/10/23 01:47:44;;;;;;;0.40;0.40;;;;;;;15.58;55.63;101355.63;5069555;28;20477;-70
2023/10/23 01:50:09;;;;;;;0.22;0.22;;;;;;;15.63;56.25;101361.09;5073265;28;20213;-71
2023/10/23 01:52:35;;;;;;;0.30;0.30;;;;;;;15.50;55.89;101361.44;5073850;28;20113;-70
2023/10/23 01:55:00;;;;;;;0.38;0.38;;;;;;;15.41;56.77;101356.63;5073892;28;20044;-70
2023/10/23 01:57:26;;;;;;;0.30;0.30;;;;;;;15.56;56.81;101360.47;5074221;28;20059;-70
2023/10/23 01:59:52;;;;;;;0.30;0.30;;;;;;;15.65;57.08;101360.84;5073959;28;20040;-70
2023/10/23 02:02:17;;;;;;;0.17;0.17;;;;;;;15.67;57.04;101362.25;5073650;28;20051;-71
2023/10/23 02:04:43;;;;;;;0.30;0.30;;;;;;;15.61;57.83;101362.41;5073616;28;20040;-70
2023/10/23 02:07:08;;;;;;;0.20;0.20;;;;;;;15.71;56.92;101370.72;5073856;28;20032;-70
2023/10/23 02:09:37;;;;;;;0.28;0.28;;;;;;;15.79;56.87;101363.00;5073547;28;20036;-70
2023/10/23 02:12:04;;;;;;;0.40;0.40;;;;;;;15.67;57.28;101372.28;5073955;28;20056;-70
2023/10/23 02:14:30;;;;;;;0.30;0.30;;;;;;;15.73;56.99;101380.25;5073348;28;20039;-70
2023/10/23 02:16:55;;;;;;;0.28;0.28;;;;;;;15.73;56.80;101395.69;5072997;28;20554;-70
2023/10/23 02:19:21;;;;;;;0.32;0.32;;;;;;;15.71;57.44;101398.63;5073254;28;20119;-70
2023/10/23 02:21:49;;;;;;;0.50;0.50;;;;;;;15.87;57.71;101388.88;5073388;28;20575;-70
2023/10/23 02:24:19;;;;;;;0.30;0.30;;;;;;;15.80;58.20;101383.59;5073903;28;20050;-69
2023/10/23 02:26:45;;;;;;;0.30;0.30;;;;;;;15.55;59.07;101395.91;5073254;28;20052;-70
2023/10/23 02:29:10;;;;;;;0.40;0.40;;;;;;;15.94;57.85;101391.44;5073285;28;20102;-71
2023/10/23 02:32:25;;;;;;;0.28;0.28;;;;;;;16.12;57.13;101397.38;5073055;28;20036;-69
2023/10/23 02:34:51;;;;;;;0.45;0.45;;;;;;;15.94;57.03;101391.44;5073223;28;20065;-70
2023/10/23 02:37:17;;;;;;;0.30;0.30;;;;;;;15.92;56.98;101394.34;5073286;28;20051;-70
2023/10/23 02:39:42;;;;;;;0.40;0.40;;;;;;;15.83;57.12;101387.72;5076257;28;20156;-70
2023/10/23 02:42:07;;;;;;;0.40;0.40;;;;;;;15.77;56.97;101386.81;5073605;28;20069;-71
2023/10/23 02:44:33;;;;;;;0.30;0.30;;;;;;;15.71;56.51;101387.78;5054315;28;20488;-70
2023/10/23 02:46:58;;;;;;;0.20;0.20;;;;;;;15.71;56.64;101389.69;5073047;28;20140;-70
2023/10/23 02:49:24;;;;;;;0.40;0.40;;;;;;;15.78;56.44;101385.72;5073078;28;20044;-70
2023/10/23 02:51:50;;;;;;;0.17;0.17;;;;;;;15.76;56.45;101381.66;5054401;28;20431;-71
2023/10/23 02:54:16;;;;;;;0.30;0.30;;;;;;;15.73;56.68;101384.84;5073538;28;20112;-71
2023/10/23 02:56:41;;;;;;;0.30;0.30;;;;;;;15.69;56.77;101391.81;5072673;28;20056;-70
2023/10/23 02:59:06;;;;;;;0.40;0.40;;;;;;;15.73;56.46;101396.50;5072438;28;20506;-70
2023/10/23 03:01:32;;;;;;;0.30;0.30;;;;;;;15.74;56.43;101403.56;5071545;28;20029;-70
2023/10/23 03:03:57;;;;;;;0.32;0.32;;;;;;;15.80;56.55;101404.47;5072147;28;20028;-70
2023/10/23 03:06:22;;;;;;;0.20;0.20;;;;;;;15.82;56.74;101399.63;5072018;28;20107;-70
2023/10/23 03:08:48;;;;;;;0.38;0.38;;;;;;;15.83;56.73;101403.97;5071320;28;20131;-70
2023/10/23 03:11:13;;;;;;;0.30;0.30;;;;;;;15.85;56.56;101409.97;5071470;28;20467;-70
2023/10/23 03:13:39;;;;;;;0.20;0.20;;;;;;;16.02;56.09;101413.50;5071069;28;20040;-70
2023/10/23 03:16:04;;;;;;;0.30;0.30;;;;;;;16.16;57.03;101425.66;5071114;28;20404;-69
2023/10/23 03:18:29;;;;;;;0.30;0.30;;;;;;;16.13;57.12;101423.47;5071921;28;20119;-70
2023/10/23 03:20:59;;;;;;;0.22;0.22;;;;;;;16.27;57.80;101423.94;5070996;28;20074;-70
2023/10/23 03:23:25;;;;;;;0.30;0.30;;;;;;;16.38;57.09;101414.88;5071062;28;20028;-70
2023/10/23 03:25:51;;;;;;;0.25;0.25;;;;;;;16.49;56.96;101422.13;5071248;28;20055;-71
2023/10/23 03:28:16;;;;;;;0.30;0.30;;;;;;;16.52;57.35;101411.59;5071215;28;20127;-71
2023/10/23 03:30:41;;;;;;;0.20;0.20;;;;;;;16.60;56.94;101419.31;5070757;28;20108;-69
2023/10/23 03:33:07;;;;;;;0.38;0.38;;;;;;;16.58;57.21;101418.72;5071482;28;20068;-70
2023/10/23 03:35:33;;;;;;;0.30;0.30;;;;;;;16.61;57.33;101415.50;5086314;28;20051;-70
2023/10/23 03:37:59;;;;;;;0.30;0.30;;;;;;;16.62;57.35;101414.44;5072786;28;20504;-70
2023/10/23 03:40:24;;;;;;;0.22;0.22;;;;;;;16.52;57.45;101408.88;5070561;28;20040;-70
2023/10/23 03:42:50;;;;;;;0.30;0.30;;;;;;;16.54;57.46;101401.31;5070179;28;20081;-69
2023/10/23 03:45:16;;;;;;;0.25;0.25;;;;;;;16.50;57.10;101411.03;5071098;28;20024;-71
2023/10/23 03:47:41;;;;;;;0.30;0.30;;;;;;;16.49;57.08;101414.78;5070626;28;20651;-70
2023/10/23 03:50:07;;;;;;;0.30;0.30;;;;;;;16.39;57.51;101413.81;5070546;28;20051;-71
2023/10/23 03:52:32;;;;;;;0.50;0.50;;;;;;;16.43;56.85;101418.47;5070514;28;20060;-70
2023/10/23 03:54:58;;;;;;;0.30;0.30;;;;;;;16.37;56.69;101419.47;5070806;28;20137;-70
2023/10/23 03:57:23;;;;;;;0.20;0.20;;;;;;;16.31;57.38;101422.38;5070701;28;20036;-69
2023/10/23 03:59:48;;;;;;;0.40;0.40;;;;;;;16.27;57.01;101421.22;5070716;28;20082;-71
2023/10/23 04:02:16;;;;;;;0.10;0.10;;;;;;;16.23;56.68;101420.06;5064601;28;20120;-70
2023/10/23 04:04:42;;;;;;;0.20;0.20;;;;;;;16.14;56.94;101416.94;5065501;28;20042;-70
2023/10/23 04:07:07;;;;;;;0.20;0.20;;;;;;;16.16;56.36;101428.38;5066005;28;20040;-69
2023/10/23 04:09:32;;;;;;;0.20;0.20;;;;;;;16.08;56.32;101433.41;5060569;28;20041;-68
2023/10/23 04:11:58;;;;;;;0.10;0.10;;;;;;;16.11;56.48;101427.47;5070761;28;20099;-69
2023/10/23 04:14:23;;;;;;;0.40;0.40;;;;;;;16.07;56.70;101429.03;5070697;28;20162;-69
2023/10/23 04:16:49;;;;;;;0.20;0.20;;;;;;;16.00;56.57;101431.91;5069937;28;20098;-70
2023/10/23 04:19:14;;;;;;;0.20;0.20;;;;;;;16.04;56.45;101422.22;5055702;28;20044;-70
2023/10/23 04:21:39;;;;;;;0.40;0.40;;;;;;;16.06;56.52;101422.78;5056578;28;20048;-69
2023/10/23 04:24:07;;;;;;;0.52;0.52;;;;;;;16.10;56.51;101425.81;5070322;28;20408;-70
2023/10/23 04:26:32;;;;;;;0.20;0.20;;;;;;;16.04;56.57;101421.41;5069970;28;20115;-70
2023/10/23 04:28:57;;;;;;;0.17;0.17;;;;;;;16.05;56.62;101417.63;5069954;28;20540;-70
2023/10/23 04:31:23;;;;;;;0.30;0.30;;;;;;;16.07;56.46;101424.44;5081871;28;20498;-71
2023/10/23 04:33:48;;;;;;;0.40;0.40;;;;;;;16.06;56.64;101430.91;5074449;28;20031;-71
2023/10/23 04:36:13;;;;;;;0.17;0.17;;;;;;;16.08;57.03;101422.56;5069883;28;20024;-71
2023/10/23 04:38:39;;;;;;;0.20;0.20;;;;;;;16.13;56.82;101428.03;5066028;28;20047;-70
2023/10/23 04:41:04;;;;;;;0.25;0.25;;;;;;;16.07;56.78;101426.31;5069488;28;20131;-71
2023/10/23 04:43:30;;;;;;;0.20;0.20;;;;;;;16.05;56.95;101421.16;5069422;28;20039;-70
2023/10/23 04:45:56;;;;;;;0.17;0.17;;;;;;;16.03;56.28;101417.88;5069458;28;20112;-70
2023/10/23 04:48:22;;;;;;;0.25;0.25;;;;;;;16.00;56.73;101414.84;5051295;28;20044;-71
2023/10/23 04:50:47;;;;;;;0.20;0.20;;;;;;;16.00;56.12;101418.34;5070247;28;20166;-70
2023/10/23 04:53:13;;;;;;;0.25;0.25;;;;;;;15.96;56.17;101425.31;5068938;28;20029;-71
2023/10/23 04:55:40;;;;;;;0.30;0.30;;;;;;;15.94;56.26;101427.47;5067821;28;20043;-70
2023/10/23 04:58:06;;;;;;;0.30;0.30;;;;;;;16.05;56.61;101418.44;5068589;28;20032;-70
2023/10/23 05:00:34;;;;;;;0.30;0.30;;;;;;;16.12;56.55;101426.38;5069656;28;20082;-69
2023/10/23 05:03:00;;;;;;;0.32;0.32;;;;;;;16.14;56.50;101418.84;5067335;28;20025;-71
2023/10/23 05:05:25;;;;;;;0.40;0.40;;;;;;;16.28;56.73;101423.69;5069542;28;20370;-70
2023/10/23 05:07:51;;;;;;;0.40;0.40;;;;;;;16.21;57.48;101419.50;5070007;28;20036;-70
2023/10/23 05:10:16;;;;;;;0.20;0.20;;;;;;;16.22;57.76;101423.84;5070157;28;20043;-70
2023/10/23 05:12:42;;;;;;;0.20;0.20;;;;;;;16.43;57.58;101425.81;5051380;28;20036;-70
2023/10/23 05:15:08;;;;;;;0.30;0.30;;;;;;;16.46;56.72;101428.84;5069595;28;20115;-71
2023/10/23 05:17:34;;;;;;;0.40;0.40;;;;;;;16.52;56.91;101422.44;5069958;28;20049;-71
2023/10/23 05:19:59;;;;;;;0.30;0.30;;;;;;;16.50;56.88;101421.88;5070675;28;20047;-71
2023/10/23 05:22:24;;;;;;;0.20;0.20;;;;;;;16.44;57.20;101424.72;5070875;28;20032;-71
2023/10/23 05:24:50;;;;;;;0.20;0.20;;;;;;;16.35;56.98;101427.03;5070124;28;20059;-71
2023/10/23 05:27:19;;;;;;;0.32;0.32;;;;;;;16.44;56.81;101428.25;5071328;28;20103;-70
2023/10/23 05:29:45;;;;;;;0.30;0.30;;;;;;;16.34;57.30;101419.97;5070629;28;20169;-70
2023/10/23 05:32:10;;;;;;;0.30;0.30;;;;;;;16.39;56.83;101427.38;5070739;28;20127;-70
2023/10/23 05:34:35;;;;;;;0.30;0.30;;;;;;;16.38;56.58;101426.53;5069685;28;20043;-70
2023/10/23 05:37:01;;;;;;;0.40;0.40;;;;;;;16.26;56.54;101425.00;5069739;28;20041;-71
2023/10/23 05:39:27;;;;;;;0.40;0.40;;;;;;;16.22;56.72;101424.66;5070146;28;20028;-71
2023/10/23 05:41:52;;;;;;;0.35;0.35;;;;;;;16.12;56.49;101432.66;5070015;28;20408;-70
2023/10/23 05:44:18;;;;;;;0.10;0.10;;;;;;;16.06;56.85;101430.13;5069693;28;20047;-70
2023/10/23 05:46:43;;;;;;;0.40;0.40;;;;;;;16.07;56.79;101431.75;5069756;28;20041;-69
2023/10/23 05:49:09;;;;;;;0.30;0.30;;;;;;;16.05;57.12;101444.72;5069486;28;20040;-70
2023/10/23 05:51:34;;;;;;;0.20;0.20;;;;;;;16.07;56.67;101446.13;5069744;28;20120;-70
2023/10/23 05:53:59;;;;;;;0.30;0.30;;;;;;;16.02;56.91;101437.91;5070324;28;20403;-70
2023/10/23 05:56:25;;;;;;;0.30;0.30;;;;;;;16.11;56.79;101441.03;5070137;28;20036;-70
2023/10/23 05:58:50;;;;;;;0.38;0.38;;;;;;;16.11;57.12;101435.59;5051109;28;20131;-71
2023/10/23 06:01:16;;;;;;;0.47;0.47;;;;;;;16.20;56.80;101434.13;5069507;28;20377;-70
2023/10/23 06:03:42;;;;;;;0.40;0.40;;;;;;;16.23;56.26;101433.63;5069957;28;20524;-70
2023/10/23 06:06:07;;;;;;;0.30;0.30;;;;;;;16.24;56.78;101444.22;5069915;28;20037;-70
2023/10/23 06:08:33;;;;;;;0.30;0.30;;;;;;;16.20;57.00;101440.38;5051262;28;20036;-71
2023/10/23 06:10:59;;;;;;;0.30;0.30;;;;;;;16.19;57.04;101441.44;5069071;28;20404;-70
2023/10/23 06:13:24;;;;;;;0.30;0.30;;;;;;;16.09;57.45;101445.88;5069387;28;20028;-70
2023/10/23 06:15:50;;;;;;;0.20;0.20;;;;;;;16.07;57.19;101440.72;5069023;28;20488;-70
2023/10/23 06:18:16;;;;;;;0.40;0.40;;;;;;;16.08;57.07;101445.06;5069533;28;20043;-71
2023/10/23 06:20:41;;;;;;;0.43;0.43;;;;;;;16.02;56.92;101437.91;5069601;28;20033;-71
2023/10/23 06:23:06;;;;;;;0.20;0.20;;;;;;;16.07;56.82;101439.88;5057045;28;20131;-70
2023/10/23 06:25:32;;;;;;;0.30;0.30;;;;;;;15.96;57.12;101444.31;5081812;28;20033;-71
2023/10/23 06:27:58;;;;;;;0.25;0.25;;;;;;;16.00;56.88;101445.47;5069516;28;20400;-70
2023/10/23 06:30:24;;;;;;;0.30;0.30;;;;;;;15.99;56.90;101449.25;5069856;28;20028;-71
2023/10/23 06:32:49;;;;;;;0.30;0.30;;;;;;;16.07;56.76;101440.72;5069308;28;20044;-70
2023/10/23 06:35:15;;;;;;;0.20;0.20;;;;;;;15.97;57.66;101448.66;5070501;28;20520;-71
2023/10/23 06:37:41;;;;;;;0.30;0.30;;;;;;;16.07;57.25;101446.13;5053827;28;20408;-70
2023/10/23 06:40:07;;;;;;;0.20;0.20;;;;;;;16.07;57.68;101448.84;5054039;28;20048;-70
2023/10/23 06:42:32;;;;;;;0.40;0.40;;;;;;;16.20;57.43;101447.66;5072956;28;20060;-71
2023/10/23 06:44:58;;;;;;;0.30;0.30;;;;;;;16.29;57.30;101454.34;5073490;28;20555;-71
2023/10/23 06:47:24;;;;;;;0.20;0.20;;;;;;;16.35;57.12;101453.34;5072583;28;20036;-70
2023/10/23 06:50:27;;;;;;;0.20;0.20;;;;;;;16.59;57.28;101462.94;5072686;28;20124;-69
2023/10/23 06:52:52;;;;;;;0.32;0.32;;;;;;;16.52;57.24;101455.00;5072492;28;20052;-70
2023/10/23 06:55:18;;;;;;;0.30;0.30;;;;;;;16.60;57.09;101460.00;5072908;28;20068;-70
2023/10/23 06:57:43;;;;;;;0.40;0.40;;;;;;;16.71;57.37;101454.72;5072839;28;20048;-70
2023/10/23 07:00:09;;;;;;;0.20;0.20;;;;;;;17.04;56.66;101465.47;5072966;28;20515;-70
2023/10/23 07:02:34;;;;;;;0.30;0.30;;;;;;;16.96;57.19;101460.50;5072631;28;20085;-69
2023/10/23 07:05:00;;;;;;;0.30;0.30;;;;;;;17.06;57.58;101456.00;5072551;28;20064;-70
2023/10/23 07:07:25;;;;;;;0.10;0.10;;;;;;;17.31;57.10;101461.75;5072408;28;20082;-70
2023/10/23 07:09:53;;;;;;;0.20;0.20;;;;;;;17.29;57.48;101463.91;5072473;28;20123;-70
2023/10/23 07:12:18;;;;;;;0.30;0.30;;;;;;;17.45;57.40;101460.25;5072889;28;20488;-70
2023/10/23 07:14:44;;;;;;;0.40;0.40;;;;;;;17.50;57.49;101456.81;5072199;28;20036;-70
2023/10/23 07:17:09;;;;;;;0.30;0.30;;;;;;;17.50;58.26;101448.66;5072276;28;20078;-70
2023/10/23 07:19:34;;;;;;;0.45;0.45;;;;;;;17.51;58.13;101450.31;5079712;28;20748;-69
2023/10/23 07:22:00;;;;;;;0.30;0.30;;;;;;;17.74;57.59;101452.72;5088686;28;20048;-70
2023/10/23 07:24:25;;;;;;;0.30;0.30;;;;;;;17.81;57.22;101450.59;5073052;28;20515;-72
2023/10/23 07:26:50;;;;;;;0.30;0.30;;;;;;;17.72;58.40;101449.44;5072232;28;20064;-71
2023/10/23 07:29:16;;;;;;;0.30;0.30;;;;;;;17.80;58.43;101448.97;5072196;28;20129;-71
2023/10/23 07:31:41;;;;;;;0.43;0.43;;;;;;;18.07;57.64;101441.59;5071793;28;20124;-71
2023/10/23 07:34:06;;;;;;;0.32;0.32;;;;;;;18.01;58.24;101445.34;5072014;28;20088;-70
2023/10/23 07:36:32;;;;;;;0.32;0.32;;;;;;;18.13;58.20;101439.72;5072017;28;20495;-70
2023/10/23 07:38:57;;;;;;;0.40;0.40;;;;;;;18.24;58.04;101439.53;5072265;28;20374;-71
2023/10/23 07:41:22;;;;;;;0.40;0.40;;;;;;;18.23;58.38;101440.63;5072201;28;20121;-71
2023/10/23 07:43:48;;;;;;;0.32;0.32;;;;;;;17.98;59.37;101442.31;5053745;28;20166;-71
2023/10/23 07:46:13;;;;;;;0.40;0.40;;;;;;;18.45;58.32;101437.81;5071471;28;20056;-70
2023/10/23 07:48:39;;;;;;;0.50;0.50;;;;;;;18.02;59.75;101447.00;5071285;28;20048;-71
2023/10/23 07:51:05;;;;;;;0.47;0.47;;;;;;;18.37;58.24;101449.16;5072188;28;20124;-71
2023/10/23 07:53:35;;;;;;;0.30;0.30;;;;;;;18.19;60.16;101455.00;5071559;28;20036;-70
2023/10/23 07:56:00;;;;;;;0.30;0.30;;;;;;;18.49;59.00;101451.72;5071323;28;20045;-71
2023/10/23 07:58:26;;;;;;;0.35;0.35;;;;;;;18.62;59.13;101449.34;5071726;28;20037;-71
2023/10/23 08:01:04;;;;;;;0.43;0.43;;;;;;;18.72;59.07;101451.28;5071322;28;20407;-71
2023/10/23 08:03:29;;;;;;;0.20;0.20;;;;;;;18.86;58.52;101450.56;5071885;28;20028;-71
2023/10/23 08:05:55;;;;;;;0.20;0.20;;;;;;;18.92;57.99;101443.22;5071461;28;20040;-72
2023/10/23 08:08:20;;;;;;;0.10;0.10;;;;;;;18.67;59.63;101454.81;5068952;28;20033;-71
2023/10/23 08:10:45;;;;;;;0.30;0.30;;;;;;;18.64;59.94;101457.22;5072296;28;20044;-70
2023/10/23 08:13:11;;;;;;;0.38;0.38;;;;;;;18.27;61.11;101449.91;5070205;28;20036;-71
2023/10/23 08:15:38;;;;;;;0.30;0.30;;;;;;;18.99;58.02;101450.06;5070780;28;20020;-69
2023/10/23 08:18:04;;;;;;;0.38;0.38;;;;;;;18.74;61.26;101451.84;5070910;28;20064;-71
2023/10/23 08:20:30;;;;;;;0.20;0.20;;;;;;;19.07;58.48;101455.00;5052935;28;20043;-70
2023/10/23 08:22:56;;;;;;;0.15;0.15;;;;;;;19.02;58.75;101455.00;5070658;28;20561;-71
2023/10/23 08:25:21;;;;;;;0.30;0.30;;;;;;;18.71;60.27;101460.56;5070102;28;20037;-72
2023/10/23 08:27:47;;;;;;;0.20;0.20;;;;;;;19.42;58.73;101464.44;5052365;28;20032;-71
2023/10/23 08:30:13;;;;;;;0.20;0.20;;;;;;;19.06;59.14;101466.19;5070983;28;20024;-71
2023/10/23 08:32:38;;;;;;;0.20;0.20;;;;;;;19.07;60.10;101465.09;5070364;28;20094;-71
2023/10/23 08:35:04;;;;;;;0.30;0.30;;;;;;;19.08;60.09;101466.75;5069947;28;20029;-71
2023/10/23 08:37:29;;;;;;;0.20;0.20;;;;;;;19.09;61.14;101460.19;5070496;28;20074;-70
2023/10/23 08:39:54;;;;;;;0.20;0.20;;;;;;;19.43;59.58;101457.88;5070818;28;20056;-71
2023/10/23 08:42:21;;;;;;;0.22;0.22;;;;;;;19.16;61.02;101466.22;5071254;28;20020;-71
2023/10/23 08:44:50;;;;;;;0.30;0.30;;;;;;;19.52;60.39;101464.47;5070463;28;20035;-71
2023/10/23 08:47:15;;;;;;;0.40;0.40;;;;;;;19.39;61.15;101467.69;5070194;28;20311;-71
2023/10/23 08:49:41;;;;;;;0.20;0.20;;;;;;;19.94;59.52;101468.63;5070319;28;20097;-70
2023/10/23 08:52:10;;;;;;;0.20;0.20;;;;;;;20.23;58.60;101468.91;5070067;28;20480;-72
2023/10/23 08:54:36;;;;;;;0.20;0.20;;;;;;;20.17;59.20;101461.78;5070596;28;20455;-71
2023/10/23 08:57:02;;;;;;;0.30;0.30;;;;;;;19.87;59.55;101475.44;5070650;28;20108;-70
2023/10/23 08:59:28;;;;;;;0.10;0.10;;;;;;;19.71;60.70;101469.16;5069546;28;20075;-71
2023/10/23 09:01:55;;;;;;;0.20;0.20;;;;;;;19.51;60.74;101474.56;5070602;28;20032;-71
2023/10/23 09:04:20;;;;;;;0.20;0.20;;;;;;;19.44;61.77;101468.50;5070883;28;20052;-71
2023/10/23 09:06:47;;;;;;;0.20;0.20;;;;;;;19.48;60.79;101474.28;5071160;28;20063;-71
2023/10/23 09:09:13;;;;;;;0.10;0.10;;;;;;;19.27;61.65;101459.72;5053054;28;20031;-71
2023/10/23 09:11:45;;;;;;;0.20;0.20;;;;;;;19.76;60.48;101465.59;5074863;28;20044;-71
2023/10/23 09:14:22;;;;;;;0.10;0.10;;;;;;;19.53;60.88;101466.09;5090649;28;20523;-71
2023/10/23 09:16:47;;;;;;;0.20;0.20;;;;;;;19.93;59.15;101460.72;5072027;28;20541;-72
2023/10/23 09:19:25;;;;;;;0.10;0.10;;;;;;;20.55;57.75;101450.31;5090729;28;20075;-71
2023/10/23 09:21:55;;;;;;;0.20;0.20;;;;;;;20.17;59.38;101453.59;5091084;28;20040;-71
2023/10/23 09:24:22;;;;;;;0.20;0.20;;;;;;;20.07;59.47;101456.34;5091276;28;20069;-71
2023/10/23 09:26:48;;;;;;;0.20;0.20;;;;;;;19.95;59.79;101444.91;5090649;28;20052;-70
2023/10/23 09:29:13;;;;;;;0.30;0.30;;;;;;;20.38;58.46;101452.56;5090676;28;20127;-71
2023/10/23 09:31:40;;;;;;;0.20;0.20;;;;;;;20.12;59.04;101445.44;5090734;28;20089;-70
2023/10/23 09:34:07;;;;;;;0.20;0.20;;;;;;;20.32;58.73;101445.47;5090583;28;20072;-70
2023/10/23 09:36:33;;;;;;;0.10;0.10;;;;;;;20.53;58.36;101448.97;5090357;28;20388;-69
2023/10/23 09:39:00;;;;;;;0.13;0.13;;;;;;;20.70;57.94;101444.00;5081210;28;20016;-72
2023/10/23 09:41:27;;;;;;;0.30;0.30;;;;;;;20.42;58.88;101445.41;5051525;28;20044;-71
2023/10/23 09:43:55;;;;;;;0.20;0.20;;;;;;;20.59;57.77;101447.84;5070156;28;20036;-71
2023/10/23 09:46:24;;;;;;;0.20;0.20;;;;;;;20.06;59.92;101446.53;5070189;28;20033;-69
2023/10/23 09:48:51;;;;;;;0.20;0.20;;;;;;;19.52;61.50;101442.66;5069878;28;20098;-70
2023/10/23 09:51:18;;;;;;;0.20;0.20;;;;;;;19.99;60.07;101446.78;5070668;28;20075;-71
2023/10/23 09:53:58;;;;;;;0.10;0.10;;;;;;;20.41;59.29;101445.69;5070173;28;20039;-73
2023/10/23 09:56:28;;;;;;;0.20;0.20;;;;;;;20.76;57.42;101449.16;5070386;28;20041;-74
2023/10/23 09:58:58;;;;;;;0.20;0.20;;;;;;;20.47;58.75;101455.53;5069510;28;20480;-71
2023/10/23 10:01:31;;;;;;;0.10;0.10;;;;;;;20.53;58.96;101444.31;5070125;28;20036;-73
2023/10/23 10:04:05;;;;;;;0.30;0.30;;;;;;;21.05;57.54;101446.63;5069772;28;20552;-72
2023/10/23 10:06:33;;;;;;;0.17;0.17;;;;;;;20.74;58.27;101454.09;5070723;28;20039;-72
2023/10/23 10:09:00;;;;;;;0.10;0.10;;;;;;;20.51;59.41;101448.41;5082654;28;20055;-71
2023/10/23 10:11:27;;;;;;;0.13;0.13;;;;;;;20.96;58.31;101440.09;5077564;28;20079;-71
2023/10/23 10:13:53;;;;;;;0.15;0.15;;;;;;;20.54;58.08;101461.53;5073911;28;20381;-70
2023/10/23 10:16:18;;;;;;;0.20;0.20;;;;;;;20.71;58.14;101451.09;5072547;28;20086;-74
2023/10/23 10:18:45;;;;;;;0.10;0.10;;;;;;;20.80;58.64;101461.19;5071982;28;20124;-73
2023/10/23 10:21:12;;;;;;;0.20;0.20;;;;;;;20.85;58.24;101452.16;5053891;28;20224;-74
2023/10/23 10:23:39;;;;;;;0.20;0.20;;;;;;;20.93;57.85;101446.13;5071972;28;20136;-73
2023/10/23 10:26:05;;;;;;;0.20;0.20;;;;;;;21.59;55.73;101455.66;5072215;28;20135;-73
2023/10/23 10:28:30;;;;;;;0.20;0.20;;;;;;;20.90;58.05;101454.88;5071956;28;20454;-73
2023/10/23 10:30:56;;;;;;;0.20;0.20;;;;;;;21.17;57.48;101454.53;5071678;28;20028;-74
2023/10/23 10:33:22;;;;;;;0.20;0.20;;;;;;;21.38;57.14;101445.94;5072208;28;20028;-74
2023/10/23 10:35:58;;;;;;;0.20;0.20;;;;;;;20.42;59.70;101448.16;5071484;28;20138;-74
2023/10/23 10:38:25;;;;;;;0.20;0.20;;;;;;;20.85;58.33;101447.50;5071915;28;20492;-73
2023/10/23 10:40:59;;;;;;;0.10;0.10;;;;;;;20.64;59.64;101440.47;5071856;28;20376;-74
2023/10/23 10:43:29;;;;;;;0.20;0.20;;;;;;;20.55;59.36;101435.84;5071588;28;20041;-74
2023/10/23 10:45:55;;;;;;;0.10;0.10;;;;;;;21.19;57.26;101436.72;5071476;28;20086;-75
2023/10/23 10:48:23;;;;;;;0.10;0.10;;;;;;;21.33;57.16;101435.03;5069977;28;20441;-74
2023/10/23 10:50:49;;;;;;;0.15;0.15;;;;;;;20.20;60.39;101438.63;5070235;28;20388;-74
2023/10/23 10:53:15;;;;;;;0.20;0.20;;;;;;;20.74;58.89;101440.44;5070342;28;20043;-74
2023/10/23 10:55:45;;;;;;;0.20;0.20;;;;;;;20.49;59.85;101435.03;5070207;28;20511;-74
2023/10/23 10:58:11;;;;;;;0.20;0.20;;;;;;;20.94;58.06;101431.34;5070671;28;20168;-74
2023/10/23 11:00:38;;;;;;;0.20;0.20;;;;;;;20.74;58.29;101445.06;5067167;28;20446;-73
2023/10/23 11:03:04;;;;;;;0.13;0.13;;;;;;;21.13;57.20;101431.59;5070430;28;20037;-74
2023/10/23 11:05:31;;;;;;;0.10;0.10;;;;;;;20.97;57.43;101436.28;5069916;28;20059;-73
2023/10/23 11:07:57;;;;;;;0.20;0.20;;;;;;;20.88;58.32;101430.56;5067723;28;20032;-73
2023/10/23 11:10:22;;;;;;;0.10;0.10;;;;;;;21.10;57.37;101423.94;5070071;28;20492;-73
2023/10/23 11:12:49;;;;;;;0.20;0.20;;;;;;;21.25;56.86;101426.59;5069850;28;20384;-74
2023/10/23 11:15:15;;;;;;;0.10;0.10;;;;;;;21.34;57.03;101425.72;5070466;28;20033;-74
2023/10/23 11:17:41;;;;;;;0.20;0.20;;;;;;;21.63;56.41;101421.16;5070163;28;20059;-74
2023/10/23 11:20:11;;;;;;;0.52;0.20;;;;;;;21.33;56.51;101415.06;5069704;28;20028;-74